sensor_id;sensor_type;location;lat;lon;timestamp;temperature;humidity
8093;DHT22;4089;52.420;13.334;2023-09-19T00:00:42;18.20;99.90
8093;DHT22;4089;52.420;13.334;2023-09-19T00:03:10;18.10;99.90
8093;DHT22;4089;52.420;13.334;2023-09-19T00:05:39;18.10;99.90
8093;DHT22;4089;52.420;13.334;2023-09-19T00:08:06;18.20;99.90
8093;DHT22;4089;52.420;13.334;2023-09-19T00:10:34;18.10;99.90
8093;DHT22;4089;52.420;13.334;2023-09-19T00:13:04;18.10;99.90
8093;DHT22;4089;52.420;13.334;2023-09-19T00:15:39;18.10;99.90
8093;DHT22;4089;52.420;13.334;2023-09-19T00:18:07;18.10;99.90
8093;DHT22;4089;52.420;13.334;2023-09-19T00:20:36;18.10;99.90
8093;DHT22;4089;52.420;13.334;2023-09-19T00:23:04;18.00;99.90
8093;DHT22;4089;52.420;13.334;2023-09-19T00:25:31;18.00;99.90
8093;DHT22;4089;52.420;13.334;2023-09-19T00:28:06;18.00;99.90
8093;DHT22;4089;52.420;13.334;2023-09-19T00:30:34;18.00;99.90
8093;DHT22;4089;52.420;13.334;2023-09-19T00:33:01;17.90;99.90
8093;DHT22;4089;52.420;13.334;2023-09-19T00:35:32;17.90;99.90
8093;DHT22;4089;52.420;13.334;2023-09-19T00:38:00;17.90;99.90
8093;DHT22;4089;52.420;13.334;2023-09-19T00:40:26;17.80;99.90
8093;DHT22;4089;52.420;13.334;2023-09-19T00:42:57;17.80;99.90
8093;DHT22;4089;52.420;13.334;2023-09-19T00:45:27;17.80;99.90
8093;DHT22;4089;52.420;13.334;2023-09-19T00:47:55;17.70;99.90
8093;DHT22;4089;52.420;13.334;2023-09-19T00:50:25;17.70;99.90
8093;DHT22;4089;52.420;13.334;2023-09-19T00:52:56;17.70;99.90
8093;DHT22;4089;52.420;13.334;2023-09-19T00:55:24;17.70;99.90
8093;DHT22;4089;52.420;13.334;2023-09-19T00:57:52;17.70;99.90
8093;DHT22;4089;52.420;13.334;2023-09-19T01:00:19;17.70;99.90
8093;DHT22;4089;52.420;13.334;2023-09-19T01:02:47;17.60;99.90
8093;DHT22;4089;52.420;13.334;2023-09-19T01:05:15;17.60;99.90
8093;DHT22;4089;52.420;13.334;2023-09-19T01:07:42;17.60;99.90
8093;DHT22;4089;52.420;13.334;2023-09-19T01:10:18;17.60;99.90
8093;DHT22;4089;52.420;13.334;2023-09-19T01:13:13;17.60;99.90
8093;DHT22;4089;52.420;13.334;2023-09-19T01:15:55;17.60;99.90
8093;DHT22;4089;52.420;13.334;2023-09-19T01:18:37;17.60;99.90
8093;DHT22;4089;52.420;13.334;2023-09-19T01:21:22;17.60;99.90
8093;DHT22;4089;52.420;13.334;2023-09-19T01:26:56;17.50;99.90
8093;DHT22;4089;52.420;13.334;2023-09-19T01:29:46;17.50;99.90
8093;DHT22;4089;52.420;13.334;2023-09-19T01:32:19;17.60;99.90
8093;DHT22;4089;52.420;13.334;2023-09-19T01:34:50;17.60;99.90
8093;DHT22;4089;52.420;13.334;2023-09-19T01:37:18;17.60;99.90
8093;DHT22;4089;52.420;13.334;2023-09-19T01:39:50;17.60;99.90
8093;DHT22;4089;52.420;13.334;2023-09-19T01:42:31;17.60;99.90
8093;DHT22;4089;52.420;13.334;2023-09-19T01:45:13;17.70;99.90
8093;DHT22;4089;52.420;13.334;2023-09-19T01:47:49;17.60;99.90
8093;DHT22;4089;52.420;13.334;2023-09-19T01:53:28;17.70;99.90
8093;DHT22;4089;52.420;13.334;2023-09-19T01:55:57;17.70;99.90
8093;DHT22;4089;52.420;13.334;2023-09-19T01:58:56;17.60;99.90
8093;DHT22;4089;52.420;13.334;2023-09-19T02:01:23;17.60;99.90
8093;DHT22;4089;52.420;13.334;2023-09-19T02:03:50;17.60;99.90
8093;DHT22;4089;52.420;13.334;2023-09-19T02:06:19;17.60;99.90
8093;DHT22;4089;52.420;13.334;2023-09-19T02:08:49;17.60;99.90
8093;DHT22;4089;52.420;13.334;2023-09-19T02:11:40;17.60;99.90
8093;DHT22;4089;52.420;13.334;2023-09-19T02:14:09;17.60;99.90
8093;DHT22;4089;52.420;13.334;2023-09-19T02:16:36;17.60;99.90
8093;DHT22;4089;52.420;13.334;2023-09-19T02:19:02;17.60;99.90
8093;DHT22;4089;52.420;13.334;2023-09-19T02:21:32;17.60;99.90
8093;DHT22;4089;52.420;13.334;2023-09-19T02:24:00;17.70;99.90
8093;DHT22;4089;52.420;13.334;2023-09-19T02:26:27;17.60;99.90
8093;DHT22;4089;52.420;13.334;2023-09-19T02:28:54;17.60;99.90
8093;DHT22;4089;52.420;13.334;2023-09-19T02:31:21;17.60;99.90
8093;DHT22;4089;52.420;13.334;2023-09-19T02:33:48;17.60;99.90
8093;DHT22;4089;52.420;13.334;2023-09-19T02:36:15;17.70;99.90
8093;DHT22;4089;52.420;13.334;2023-09-19T02:38:44;17.70;99.90
8093;DHT22;4089;52.420;13.334;2023-09-19T02:41:11;17.60;99.90
8093;DHT22;4089;52.420;13.334;2023-09-19T02:43:38;17.70;99.90
8093;DHT22;4089;52.420;13.334;2023-09-19T02:46:06;17.70;99.90
8093;DHT22;4089;52.420;13.334;2023-09-19T02:48:33;17.70;99.90
8093;DHT22;4089;52.420;13.334;2023-09-19T02:51:02;17.70;99.90
8093;DHT22;4089;52.420;13.334;2023-09-19T02:53:32;17.70;99.90
8093;DHT22;4089;52.420;13.334;2023-09-19T02:55:59;17.70;99.90
8093;DHT22;4089;52.420;13.334;2023-09-19T02:58:26;17.70;99.90
8093;DHT22;4089;52.420;13.334;2023-09-19T03:00:54;17.70;99.90
8093;DHT22;4089;52.420;13.334;2023-09-19T03:03:22;17.70;99.90
8093;DHT22;4089;52.420;13.334;2023-09-19T03:05:49;17.70;99.90
8093;DHT22;4089;52.420;13.334;2023-09-19T03:08:20;17.70;99.90
8093;DHT22;4089;52.420;13.334;2023-09-19T03:10:48;17.80;99.90
8093;DHT22;4089;52.420;13.334;2023-09-19T03:13:15;17.80;99.90
8093;DHT22;4089;52.420;13.334;2023-09-19T03:15:42;17.80;99.90
8093;DHT22;4089;52.420;13.334;2023-09-19T03:18:17;17.80;99.90
8093;DHT22;4089;52.420;13.334;2023-09-19T03:20:52;17.80;99.90
8093;DHT22;4089;52.420;13.334;2023-09-19T03:23:21;17.70;99.90
8093;DHT22;4089;52.420;13.334;2023-09-19T03:25:48;17.70;99.90
8093;DHT22;4089;52.420;13.334;2023-09-19T03:28:15;17.70;99.90
8093;DHT22;4089;52.420;13.334;2023-09-19T03:30:43;17.70;99.90
8093;DHT22;4089;52.420;13.334;2023-09-19T03:33:11;17.70;99.90
8093;DHT22;4089;52.420;13.334;2023-09-19T03:35:39;17.60;99.90
8093;DHT22;4089;52.420;13.334;2023-09-19T03:38:06;17.60;99.90
8093;DHT22;4089;52.420;13.334;2023-09-19T03:40:33;17.60;99.90
8093;DHT22;4089;52.420;13.334;2023-09-19T03:43:00;17.60;99.90
8093;DHT22;4089;52.420;13.334;2023-09-19T03:45:27;17.60;99.90
8093;DHT22;4089;52.420;13.334;2023-09-19T03:47:54;17.50;99.90
8093;DHT22;4089;52.420;13.334;2023-09-19T03:50:21;17.50;99.90
8093;DHT22;4089;52.420;13.334;2023-09-19T03:52:48;17.50;99.90
8093;DHT22;4089;52.420;13.334;2023-09-19T03:55:15;17.50;99.90
8093;DHT22;4089;52.420;13.334;2023-09-19T03:57:42;17.50;99.90
8093;DHT22;4089;52.420;13.334;2023-09-19T04:00:09;17.50;99.90
8093;DHT22;4089;52.420;13.334;2023-09-19T04:02:39;17.50;99.90
8093;DHT22;4089;52.420;13.334;2023-09-19T04:05:06;17.50;99.90
8093;DHT22;4089;52.420;13.334;2023-09-19T04:07:33;17.60;99.90
8093;DHT22;4089;52.420;13.334;2023-09-19T04:10:01;17.50;99.90
8093;DHT22;4089;52.420;13.334;2023-09-19T04:12:29;17.50;99.90
8093;DHT22;4089;52.420;13.334;2023-09-19T04:14:56;17.50;99.90
8093;DHT22;4089;52.420;13.334;2023-09-19T04:17:22;17.50;99.90
8093;DHT22;4089;52.420;13.334;2023-09-19T04:19:50;17.50;99.90
8093;DHT22;4089;52.420;13.334;2023-09-19T04:22:17;17.50;99.90
8093;DHT22;4089;52.420;13.334;2023-09-19T04:24:44;17.40;99.90
8093;DHT22;4089;52.420;13.334;2023-09-19T04:27:11;17.40;99.90
8093;DHT22;4089;52.420;13.334;2023-09-19T04:29:41;17.30;99.90
8093;DHT22;4089;52.420;13.334;2023-09-19T04:32:11;17.40;99.90
8093;DHT22;4089;52.420;13.334;2023-09-19T04:34:39;17.30;99.90
8093;DHT22;4089;52.420;13.334;2023-09-19T04:37:06;17.30;99.90
8093;DHT22;4089;52.420;13.334;2023-09-19T04:39:33;17.20;99.90
8093;DHT22;4089;52.420;13.334;2023-09-19T04:42:00;17.20;99.90
8093;DHT22;4089;52.420;13.334;2023-09-19T04:44:27;17.10;99.90
8093;DHT22;4089;52.420;13.334;2023-09-19T04:46:54;17.10;99.90
8093;DHT22;4089;52.420;13.334;2023-09-19T04:49:21;17.10;99.90
8093;DHT22;4089;52.420;13.334;2023-09-19T04:51:48;17.00;99.90
8093;DHT22;4089;52.420;13.334;2023-09-19T04:54:15;17.00;99.90
8093;DHT22;4089;52.420;13.334;2023-09-19T04:56:42;17.00;99.90
8093;DHT22;4089;52.420;13.334;2023-09-19T04:59:09;17.00;99.90
8093;DHT22;4089;52.420;13.334;2023-09-19T05:01:37;17.00;99.90
8093;DHT22;4089;52.420;13.334;2023-09-19T05:04:04;17.00;99.90
8093;DHT22;4089;52.420;13.334;2023-09-19T05:06:33;17.00;99.90
8093;DHT22;4089;52.420;13.334;2023-09-19T05:09:02;17.10;99.90
8093;DHT22;4089;52.420;13.334;2023-09-19T05:11:32;17.00;99.90
8093;DHT22;4089;52.420;13.334;2023-09-19T05:13:59;17.00;99.90
8093;DHT22;4089;52.420;13.334;2023-09-19T05:16:30;17.00;99.90
8093;DHT22;4089;52.420;13.334;2023-09-19T05:19:01;17.00;99.90
8093;DHT22;4089;52.420;13.334;2023-09-19T05:21:28;17.00;99.90
8093;DHT22;4089;52.420;13.334;2023-09-19T05:23:56;17.00;99.90
8093;DHT22;4089;52.420;13.334;2023-09-19T05:26:23;17.00;99.90
8093;DHT22;4089;52.420;13.334;2023-09-19T05:28:50;17.00;99.90
8093;DHT22;4089;52.420;13.334;2023-09-19T05:31:16;17.00;99.90
8093;DHT22;4089;52.420;13.334;2023-09-19T05:33:44;17.00;99.90
8093;DHT22;4089;52.420;13.334;2023-09-19T05:36:10;17.00;99.90
8093;DHT22;4089;52.420;13.334;2023-09-19T05:38:38;17.00;99.90
8093;DHT22;4089;52.420;13.334;2023-09-19T05:41:08;17.00;99.90
8093;DHT22;4089;52.420;13.334;2023-09-19T05:43:36;17.00;99.90
8093;DHT22;4089;52.420;13.334;2023-09-19T05:46:04;17.00;99.90
8093;DHT22;4089;52.420;13.334;2023-09-19T05:48:31;17.00;99.90
8093;DHT22;4089;52.420;13.334;2023-09-19T05:50:58;17.00;99.90
8093;DHT22;4089;52.420;13.334;2023-09-19T05:53:25;16.90;99.90
8093;DHT22;4089;52.420;13.334;2023-09-19T05:55:52;16.90;99.90
8093;DHT22;4089;52.420;13.334;2023-09-19T05:58:20;16.90;99.90
8093;DHT22;4089;52.420;13.334;2023-09-19T06:00:47;16.90;99.90
8093;DHT22;4089;52.420;13.334;2023-09-19T06:03:15;16.90;99.90
8093;DHT22;4089;52.420;13.334;2023-09-19T06:05:44;16.80;99.90
8093;DHT22;4089;52.420;13.334;2023-09-19T06:08:12;16.90;99.90
8093;DHT22;4089;52.420;13.334;2023-09-19T06:10:39;16.80;99.90
8093;DHT22;4089;52.420;13.334;2023-09-19T06:13:06;16.80;99.90
8093;DHT22;4089;52.420;13.334;2023-09-19T06:15:36;16.80;99.90
8093;DHT22;4089;52.420;13.334;2023-09-19T06:18:03;16.90;99.90
8093;DHT22;4089;52.420;13.334;2023-09-19T06:20:31;16.90;99.90
8093;DHT22;4089;52.420;13.334;2023-09-19T06:23:00;16.90;99.90
8093;DHT22;4089;52.420;13.334;2023-09-19T06:25:28;16.90;99.90
8093;DHT22;4089;52.420;13.334;2023-09-19T06:27:55;16.90;99.90
8093;DHT22;4089;52.420;13.334;2023-09-19T06:30:24;16.90;99.90
8093;DHT22;4089;52.420;13.334;2023-09-19T06:32:56;17.00;99.90
8093;DHT22;4089;52.420;13.334;2023-09-19T06:35:23;17.00;99.90
8093;DHT22;4089;52.420;13.334;2023-09-19T06:37:53;17.00;99.90
8093;DHT22;4089;52.420;13.334;2023-09-19T06:40:20;17.10;99.90
8093;DHT22;4089;52.420;13.334;2023-09-19T06:42:51;17.20;99.90
8093;DHT22;4089;52.420;13.334;2023-09-19T06:45:19;17.30;99.90
8093;DHT22;4089;52.420;13.334;2023-09-19T06:47:50;17.40;99.90
8093;DHT22;4089;52.420;13.334;2023-09-19T06:50:19;17.50;99.90
8093;DHT22;4089;52.420;13.334;2023-09-19T06:52:47;17.60;99.90
8093;DHT22;4089;52.420;13.334;2023-09-19T06:55:17;17.70;99.90
8093;DHT22;4089;52.420;13.334;2023-09-19T06:57:47;17.80;99.90
8093;DHT22;4089;52.420;13.334;2023-09-19T07:00:16;17.90;99.90
8093;DHT22;4089;52.420;13.334;2023-09-19T07:02:54;18.10;99.90
8093;DHT22;4089;52.420;13.334;2023-09-19T07:05:21;18.20;99.90
8093;DHT22;4089;52.420;13.334;2023-09-19T07:07:48;18.40;99.90
8093;DHT22;4089;52.420;13.334;2023-09-19T07:10:16;18.50;99.90
8093;DHT22;4089;52.420;13.334;2023-09-19T07:12:45;18.60;99.90
8093;DHT22;4089;52.420;13.334;2023-09-19T07:15:11;18.70;99.90
8093;DHT22;4089;52.420;13.334;2023-09-19T07:17:38;18.80;99.90
8093;DHT22;4089;52.420;13.334;2023-09-19T07:20:06;19.00;99.90
8093;DHT22;4089;52.420;13.334;2023-09-19T07:22:34;19.00;99.90
8093;DHT22;4089;52.420;13.334;2023-09-19T07:25:03;19.10;99.90
8093;DHT22;4089;52.420;13.334;2023-09-19T07:27:30;19.00;99.90
8093;DHT22;4089;52.420;13.334;2023-09-19T07:29:57;19.10;99.90
8093;DHT22;4089;52.420;13.334;2023-09-19T07:32:23;19.20;99.90
8093;DHT22;4089;52.420;13.334;2023-09-19T07:34:51;19.20;99.90
8093;DHT22;4089;52.420;13.334;2023-09-19T07:37:17;19.20;99.90
8093;DHT22;4089;52.420;13.334;2023-09-19T07:39:44;19.20;99.90
8093;DHT22;4089;52.420;13.334;2023-09-19T07:42:11;19.20;99.90
8093;DHT22;4089;52.420;13.334;2023-09-19T07:44:44;19.20;99.90
8093;DHT22;4089;52.420;13.334;2023-09-19T07:47:14;19.10;99.90
8093;DHT22;4089;52.420;13.334;2023-09-19T07:49:42;19.10;99.90
8093;DHT22;4089;52.420;13.334;2023-09-19T07:52:09;19.00;99.90
8093;DHT22;4089;52.420;13.334;2023-09-19T07:54:37;19.10;99.90
8093;DHT22;4089;52.420;13.334;2023-09-19T07:57:05;19.30;99.90
8093;DHT22;4089;52.420;13.334;2023-09-19T07:59:32;19.40;99.90
8093;DHT22;4089;52.420;13.334;2023-09-19T08:01:59;19.40;99.90
8093;DHT22;4089;52.420;13.334;2023-09-19T08:04:27;19.30;99.90
8093;DHT22;4089;52.420;13.334;2023-09-19T08:06:55;19.40;99.90
8093;DHT22;4089;52.420;13.334;2023-09-19T08:09:22;19.30;99.90
8093;DHT22;4089;52.420;13.334;2023-09-19T08:11:51;19.30;99.90
8093;DHT22;4089;52.420;13.334;2023-09-19T08:14:18;19.20;99.90
8093;DHT22;4089;52.420;13.334;2023-09-19T08:16:45;19.20;99.90
8093;DHT22;4089;52.420;13.334;2023-09-19T08:19:12;19.40;99.90
8093;DHT22;4089;52.420;13.334;2023-09-19T08:21:39;19.30;99.90
8093;DHT22;4089;52.420;13.334;2023-09-19T08:24:06;19.20;99.90
8093;DHT22;4089;52.420;13.334;2023-09-19T08:26:32;19.20;99.90
8093;DHT22;4089;52.420;13.334;2023-09-19T08:28:59;19.00;99.90
8093;DHT22;4089;52.420;13.334;2023-09-19T08:31:32;18.90;99.90
8093;DHT22;4089;52.420;13.334;2023-09-19T08:34:00;18.90;99.90
8093;DHT22;4089;52.420;13.334;2023-09-19T08:36:27;18.90;99.90
8093;DHT22;4089;52.420;13.334;2023-09-19T08:38:54;18.90;99.90
8093;DHT22;4089;52.420;13.334;2023-09-19T08:41:21;18.90;99.90
8093;DHT22;4089;52.420;13.334;2023-09-19T08:43:47;18.90;99.90
8093;DHT22;4089;52.420;13.334;2023-09-19T08:46:16;18.90;99.90
8093;DHT22;4089;52.420;13.334;2023-09-19T08:49:03;18.90;99.90
8093;DHT22;4089;52.420;13.334;2023-09-19T08:51:42;19.00;99.90
8093;DHT22;4089;52.420;13.334;2023-09-19T08:54:29;19.10;99.90
8093;DHT22;4089;52.420;13.334;2023-09-19T08:57:00;19.10;99.90
8093;DHT22;4089;52.420;13.334;2023-09-19T08:59:37;18.80;99.90
8093;DHT22;4089;52.420;13.334;2023-09-19T09:02:12;19.00;99.90
8093;DHT22;4089;52.420;13.334;2023-09-19T09:04:45;19.10;99.90
8093;DHT22;4089;52.420;13.334;2023-09-19T09:07:12;19.20;99.90
8093;DHT22;4089;52.420;13.334;2023-09-19T09:09:40;19.30;99.90
8093;DHT22;4089;52.420;13.334;2023-09-19T09:12:14;19.20;99.90
8093;DHT22;4089;52.420;13.334;2023-09-19T09:14:46;19.00;99.90
8093;DHT22;4089;52.420;13.334;2023-09-19T09:17:17;19.00;99.90
8093;DHT22;4089;52.420;13.334;2023-09-19T09:19:47;19.20;99.90
8093;DHT22;4089;52.420;13.334;2023-09-19T09:22:14;19.40;99.90
8093;DHT22;4089;52.420;13.334;2023-09-19T09:24:56;19.50;99.90
8093;DHT22;4089;52.420;13.334;2023-09-19T09:27:28;19.60;99.90
8093;DHT22;4089;52.420;13.334;2023-09-19T09:29:54;19.70;99.90
8093;DHT22;4089;52.420;13.334;2023-09-19T09:32:29;19.80;99.90
8093;DHT22;4089;52.420;13.334;2023-09-19T09:35:00;19.90;99.90
8093;DHT22;4089;52.420;13.334;2023-09-19T09:37:29;20.00;99.90
8093;DHT22;4089;52.420;13.334;2023-09-19T09:39:59;20.20;99.90
8093;DHT22;4089;52.420;13.334;2023-09-19T09:42:45;20.10;99.90
8093;DHT22;4089;52.420;13.334;2023-09-19T09:45:23;20.00;99.90
8093;DHT22;4089;52.420;13.334;2023-09-19T09:48:00;20.00;99.90
8093;DHT22;4089;52.420;13.334;2023-09-19T09:50:34;20.10;99.90
8093;DHT22;4089;52.420;13.334;2023-09-19T09:58:29;19.90;99.90
8093;DHT22;4089;52.420;13.334;2023-09-19T10:00:56;20.00;99.90
8093;DHT22;4089;52.420;13.334;2023-09-19T10:03:59;20.10;99.90
8093;DHT22;4089;52.420;13.334;2023-09-19T10:06:40;20.40;99.90
8093;DHT22;4089;52.420;13.334;2023-09-19T10:09:15;20.60;99.90
8093;DHT22;4089;52.420;13.334;2023-09-19T10:11:47;20.40;99.90
8093;DHT22;4089;52.420;13.334;2023-09-19T10:14:27;20.40;99.90
8093;DHT22;4089;52.420;13.334;2023-09-19T10:17:00;20.40;99.90
8093;DHT22;4089;52.420;13.334;2023-09-19T10:19:37;20.60;99.90
8093;DHT22;4089;52.420;13.334;2023-09-19T10:22:05;20.70;99.90
8093;DHT22;4089;52.420;13.334;2023-09-19T10:24:36;20.90;99.90
8093;DHT22;4089;52.420;13.334;2023-09-19T10:27:23;21.00;99.30
8093;DHT22;4089;52.420;13.334;2023-09-19T10:29:54;20.90;98.70
8093;DHT22;4089;52.420;13.334;2023-09-19T10:32:23;20.80;99.30
8093;DHT22;4089;52.420;13.334;2023-09-19T10:34:50;20.60;98.50
8093;DHT22;4089;52.420;13.334;2023-09-19T10:37:24;20.60;98.10
8093;DHT22;4089;52.420;13.334;2023-09-19T10:39:54;20.80;98.70
8093;DHT22;4089;52.420;13.334;2023-09-19T10:42:23;20.80;98.10
8093;DHT22;4089;52.420;13.334;2023-09-19T10:44:55;20.80;98.10
8093;DHT22;4089;52.420;13.334;2023-09-19T10:47:27;20.70;98.60
8093;DHT22;4089;52.420;13.334;2023-09-19T10:49:54;20.70;98.50
8093;DHT22;4089;52.420;13.334;2023-09-19T10:52:24;20.70;98.90
8093;DHT22;4089;52.420;13.334;2023-09-19T10:54:53;20.80;98.90
8093;DHT22;4089;52.420;13.334;2023-09-19T10:57:23;21.10;97.80
8093;DHT22;4089;52.420;13.334;2023-09-19T11:00:09;21.00;96.70
8093;DHT22;4089;52.420;13.334;2023-09-19T11:05:42;20.80;96.30
8093;DHT22;4089;52.420;13.334;2023-09-19T11:08:09;20.70;95.60
8093;DHT22;4089;52.420;13.334;2023-09-19T11:10:48;20.60;95.80
8093;DHT22;4089;52.420;13.334;2023-09-19T11:13:30;20.70;96.10
8093;DHT22;4089;52.420;13.334;2023-09-19T11:16:05;20.70;96.00
8093;DHT22;4089;52.420;13.334;2023-09-19T11:24:28;20.50;96.40
8093;DHT22;4089;52.420;13.334;2023-09-19T11:27:18;20.60;96.70
8093;DHT22;4089;52.420;13.334;2023-09-19T11:29:46;20.60;96.20
8093;DHT22;4089;52.420;13.334;2023-09-19T11:32:15;20.80;96.80
8093;DHT22;4089;52.420;13.334;2023-09-19T11:34:45;21.10;96.30
8093;DHT22;4089;52.420;13.334;2023-09-19T11:42:48;21.30;94.80
8093;DHT22;4089;52.420;13.334;2023-09-19T11:48:07;21.30;95.00
8093;DHT22;4089;52.420;13.334;2023-09-19T11:50:35;21.20;94.10
8093;DHT22;4089;52.420;13.334;2023-09-19T11:53:05;20.90;94.20
8093;DHT22;4089;52.420;13.334;2023-09-19T11:55:33;20.90;94.10
8093;DHT22;4089;52.420;13.334;2023-09-19T11:58:01;20.90;94.30
8093;DHT22;4089;52.420;13.334;2023-09-19T12:00:28;21.00;95.10
8093;DHT22;4089;52.420;13.334;2023-09-19T12:02:57;20.60;94.20
8093;DHT22;4089;52.420;13.334;2023-09-19T12:05:30;20.70;95.30
8093;DHT22;4089;52.420;13.334;2023-09-19T12:07:57;20.50;94.90
8093;DHT22;4089;52.420;13.334;2023-09-19T12:10:24;20.50;94.30
8093;DHT22;4089;52.420;13.334;2023-09-19T12:12:52;20.80;94.80
8093;DHT22;4089;52.420;13.334;2023-09-19T12:15:23;20.80;94.20
8093;DHT22;4089;52.420;13.334;2023-09-19T12:17:55;20.90;94.30
8093;DHT22;4089;52.420;13.334;2023-09-19T12:20:22;20.80;93.90
8093;DHT22;4089;52.420;13.334;2023-09-19T12:22:49;20.80;94.00
8093;DHT22;4089;52.420;13.334;2023-09-19T12:25:17;20.80;93.30
8093;DHT22;4089;52.420;13.334;2023-09-19T12:27:46;20.70;93.40
8093;DHT22;4089;52.420;13.334;2023-09-19T12:30:15;20.90;93.80
8093;DHT22;4089;52.420;13.334;2023-09-19T12:32:47;21.00;93.50
8093;DHT22;4089;52.420;13.334;2023-09-19T12:35:32;20.90;93.80
8093;DHT22;4089;52.420;13.334;2023-09-19T12:38:03;21.00;94.00
8093;DHT22;4089;52.420;13.334;2023-09-19T12:40:31;21.00;94.10
8093;DHT22;4089;52.420;13.334;2023-09-19T12:43:00;21.10;93.50
8093;DHT22;4089;52.420;13.334;2023-09-19T12:45:30;21.20;93.80
8093;DHT22;4089;52.420;13.334;2023-09-19T12:48:23;21.20;93.40
8093;DHT22;4089;52.420;13.334;2023-09-19T12:53:40;21.10;92.80
8093;DHT22;4089;52.420;13.334;2023-09-19T12:56:10;21.10;92.80
8093;DHT22;4089;52.420;13.334;2023-09-19T12:58:52;21.10;92.50
8093;DHT22;4089;52.420;13.334;2023-09-19T13:01:25;21.30;93.30
8093;DHT22;4089;52.420;13.334;2023-09-19T13:04:16;21.40;93.10
8093;DHT22;4089;52.420;13.334;2023-09-19T13:06:51;21.40;92.70
8093;DHT22;4089;52.420;13.334;2023-09-19T13:09:22;21.50;92.60
8093;DHT22;4089;52.420;13.334;2023-09-19T13:12:00;21.40;92.20
8093;DHT22;4089;52.420;13.334;2023-09-19T13:14:30;21.40;92.60
8093;DHT22;4089;52.420;13.334;2023-09-19T13:17:07;21.40;92.20
8093;DHT22;4089;52.420;13.334;2023-09-19T13:19:48;21.30;92.40
8093;DHT22;4089;52.420;13.334;2023-09-19T13:22:45;21.20;92.50
8093;DHT22;4089;52.420;13.334;2023-09-19T13:25:17;21.20;92.50
8093;DHT22;4089;52.420;13.334;2023-09-19T13:27:54;21.30;93.20
8093;DHT22;4089;52.420;13.334;2023-09-19T13:30:27;21.20;92.60
8093;DHT22;4089;52.420;13.334;2023-09-19T13:33:10;21.20;92.00
8093;DHT22;4089;52.420;13.334;2023-09-19T13:35:38;21.00;92.10
8093;DHT22;4089;52.420;13.334;2023-09-19T13:38:07;21.20;92.80
8093;DHT22;4089;52.420;13.334;2023-09-19T13:40:39;21.20;91.50
8093;DHT22;4089;52.420;13.334;2023-09-19T13:43:08;21.40;92.70
8093;DHT22;4089;52.420;13.334;2023-09-19T13:45:35;21.20;92.10
8093;DHT22;4089;52.420;13.334;2023-09-19T13:48:03;21.40;92.60
8093;DHT22;4089;52.420;13.334;2023-09-19T13:50:30;21.30;92.40
8093;DHT22;4089;52.420;13.334;2023-09-19T13:52:58;21.20;92.20
8093;DHT22;4089;52.420;13.334;2023-09-19T13:55:27;21.10;91.90
8093;DHT22;4089;52.420;13.334;2023-09-19T13:57:54;21.00;92.20
8093;DHT22;4089;52.420;13.334;2023-09-19T14:00:23;21.10;92.40
8093;DHT22;4089;52.420;13.334;2023-09-19T14:02:50;21.30;92.30
8093;DHT22;4089;52.420;13.334;2023-09-19T14:05:19;21.40;92.10
8093;DHT22;4089;52.420;13.334;2023-09-19T14:07:47;21.40;92.30
8093;DHT22;4089;52.420;13.334;2023-09-19T14:10:15;21.50;92.20
8093;DHT22;4089;52.420;13.334;2023-09-19T14:12:44;21.60;92.00
8093;DHT22;4089;52.420;13.334;2023-09-19T14:15:11;21.70;92.10
8093;DHT22;4089;52.420;13.334;2023-09-19T14:17:39;21.80;92.00
8093;DHT22;4089;52.420;13.334;2023-09-19T14:20:09;21.90;92.40
8093;DHT22;4089;52.420;13.334;2023-09-19T14:22:37;22.00;92.20
8093;DHT22;4089;52.420;13.334;2023-09-19T14:25:05;22.20;92.50
8093;DHT22;4089;52.420;13.334;2023-09-19T14:27:33;22.20;91.00
8093;DHT22;4089;52.420;13.334;2023-09-19T14:30:00;21.90;91.10
8093;DHT22;4089;52.420;13.334;2023-09-19T14:32:27;21.80;91.40
8093;DHT22;4089;52.420;13.334;2023-09-19T14:34:53;21.70;91.70
8093;DHT22;4089;52.420;13.334;2023-09-19T14:37:20;21.80;91.30
8093;DHT22;4089;52.420;13.334;2023-09-19T14:39:47;21.80;91.20
8093;DHT22;4089;52.420;13.334;2023-09-19T14:42:14;21.90;91.40
8093;DHT22;4089;52.420;13.334;2023-09-19T14:44:44;21.60;90.40
8093;DHT22;4089;52.420;13.334;2023-09-19T14:47:11;21.60;90.40
8093;DHT22;4089;52.420;13.334;2023-09-19T14:49:40;21.60;90.20
8093;DHT22;4089;52.420;13.334;2023-09-19T14:52:09;21.50;90.00
8093;DHT22;4089;52.420;13.334;2023-09-19T14:54:36;21.40;90.10
8093;DHT22;4089;52.420;13.334;2023-09-19T14:57:08;21.50;90.30
8093;DHT22;4089;52.420;13.334;2023-09-19T14:59:35;21.40;90.80
8093;DHT22;4089;52.420;13.334;2023-09-19T15:02:06;21.40;90.50
8093;DHT22;4089;52.420;13.334;2023-09-19T15:04:33;21.50;90.20
8093;DHT22;4089;52.420;13.334;2023-09-19T15:07:07;21.50;90.30
8093;DHT22;4089;52.420;13.334;2023-09-19T15:09:33;21.40;90.00
8093;DHT22;4089;52.420;13.334;2023-09-19T15:12:00;21.30;90.20
8093;DHT22;4089;52.420;13.334;2023-09-19T15:14:27;21.50;90.70
8093;DHT22;4089;52.420;13.334;2023-09-19T15:16:56;21.70;91.00
8093;DHT22;4089;52.420;13.334;2023-09-19T15:19:23;21.70;90.70
8093;DHT22;4089;52.420;13.334;2023-09-19T15:21:50;21.70;90.60
8093;DHT22;4089;52.420;13.334;2023-09-19T15:24:17;21.60;90.60
8093;DHT22;4089;52.420;13.334;2023-09-19T15:26:44;21.60;90.60
8093;DHT22;4089;52.420;13.334;2023-09-19T15:29:12;21.50;90.90
8093;DHT22;4089;52.420;13.334;2023-09-19T15:31:40;21.60;90.90
8093;DHT22;4089;52.420;13.334;2023-09-19T15:34:07;21.60;90.90
8093;DHT22;4089;52.420;13.334;2023-09-19T15:36:34;21.80;90.80
8093;DHT22;4089;52.420;13.334;2023-09-19T15:39:03;22.10;91.10
8093;DHT22;4089;52.420;13.334;2023-09-19T15:41:34;22.40;90.60
8093;DHT22;4089;52.420;13.334;2023-09-19T15:44:03;22.70;90.70
8093;DHT22;4089;52.420;13.334;2023-09-19T15:46:31;22.70;90.60
8093;DHT22;4089;52.420;13.334;2023-09-19T15:49:02;22.80;90.90
8093;DHT22;4089;52.420;13.334;2023-09-19T15:51:29;22.90;90.20
8093;DHT22;4089;52.420;13.334;2023-09-19T15:53:57;23.20;90.50
8093;DHT22;4089;52.420;13.334;2023-09-19T15:56:24;23.30;90.30
8093;DHT22;4089;52.420;13.334;2023-09-19T15:58:52;23.10;90.00
8093;DHT22;4089;52.420;13.334;2023-09-19T16:01:21;23.00;90.00
8093;DHT22;4089;52.420;13.334;2023-09-19T16:03:50;23.00;90.10
8093;DHT22;4089;52.420;13.334;2023-09-19T16:06:30;22.90;90.30
8093;DHT22;4089;52.420;13.334;2023-09-19T16:08:59;22.70;89.70
8093;DHT22;4089;52.420;13.334;2023-09-19T16:11:27;22.80;90.20
8093;DHT22;4089;52.420;13.334;2023-09-19T16:13:55;22.50;89.60
8093;DHT22;4089;52.420;13.334;2023-09-19T16:16:23;22.20;90.30
8093;DHT22;4089;52.420;13.334;2023-09-19T16:18:53;22.00;90.40
8093;DHT22;4089;52.420;13.334;2023-09-19T16:21:25;21.80;90.60
8093;DHT22;4089;52.420;13.334;2023-09-19T16:23:56;21.60;90.60
8093;DHT22;4089;52.420;13.334;2023-09-19T16:26:25;21.60;90.70
8093;DHT22;4089;52.420;13.334;2023-09-19T16:28:54;21.30;90.20
8093;DHT22;4089;52.420;13.334;2023-09-19T16:31:23;21.10;90.30
8093;DHT22;4089;52.420;13.334;2023-09-19T16:33:50;21.10;90.60